createdAt,value
2022-09-20T03:39:10.852Z,11.21
2022-09-20T03:42:24.765Z,11.21
2022-09-20T03:45:59.206Z,10.82
2022-09-20T03:49:27.677Z,10.83
2022-09-20T03:52:30.212Z,10.85
2022-09-20T03:55:45.083Z,10.85
2022-09-20T03:59:10.718Z,10.85
2022-09-20T04:02:50.457Z,10.80
2022-09-20T04:06:20.866Z,10.86
2022-09-20T04:09:44.581Z,10.86
2022-09-20T04:13:00.592Z,10.90
2022-09-20T04:16:40.329Z,10.93
2022-09-20T04:19:58.568Z,10.96
2022-09-20T04:23:15.641Z,10.99
2022-09-20T04:26:27.151Z,10.98
2022-09-20T04:30:00.799Z,10.97
2022-09-20T04:33:27.585Z,10.90
2022-09-20T04:37:03.699Z,10.85
2022-09-20T04:40:23.571Z,10.78
2022-09-20T04:43:53.746Z,10.84
2022-09-20T04:47:25.204Z,10.84
2022-09-20T04:51:05.457Z,10.82
2022-09-20T04:54:41.816Z,10.82
2022-09-20T04:58:05.533Z,10.84
2022-09-20T05:01:19.674Z,10.76
2022-09-20T05:04:44.448Z,10.85
2022-09-20T05:08:16.393Z,10.76
2022-09-20T05:11:37.607Z,10.80
2022-09-20T05:15:11.377Z,10.78
2022-09-20T05:18:43.648Z,10.80
2022-09-20T05:21:58.462Z,10.83
2022-09-20T05:25:07.773Z,11.00
2022-09-20T05:28:13.791Z,11.11
2022-09-20T05:31:25.162Z,11.23
2022-09-20T05:34:46.146Z,11.32
2022-09-20T05:38:20.780Z,11.42
2022-09-20T05:42:05.679Z,11.58
2022-09-20T05:45:25.199Z,11.67
2022-09-20T05:48:52.776Z,11.73
2022-09-20T05:52:19.643Z,11.72
2022-09-20T05:55:34.589Z,11.64
2022-09-20T05:58:55.698Z,11.66
2022-09-20T06:02:21.560Z,11.76
2022-09-20T06:06:09.140Z,11.85
2022-09-20T06:09:36.510Z,11.98
2022-09-20T06:13:17.529Z,12.19
2022-09-20T06:16:48.348Z,12.30
2022-09-20T06:19:59.894Z,12.30
2022-09-20T06:23:05.510Z,12.61
2022-09-20T06:26:17.427Z,12.75
2022-09-20T06:29:30.294Z,12.84
2022-09-20T06:32:34.596Z,12.93
2022-09-20T06:35:45.397Z,13.04
2022-09-20T06:39:28.332Z,13.09
2022-09-20T06:42:30.874Z,13.17
2022-09-20T06:45:33.589Z,13.53
2022-09-20T06:48:39.840Z,13.93
2022-09-20T06:51:43.487Z,13.81
2022-09-20T06:54:53.795Z,13.80
2022-09-20T06:57:57.135Z,13.81
2022-09-20T07:00:59.593Z,13.85
2022-09-20T07:04:03.156Z,13.91
2022-09-20T07:07:09.658Z,13.94
2022-09-20T07:10:12.661Z,13.90
2022-09-20T07:13:15.026Z,13.96
2022-09-20T07:16:18.037Z,13.98
2022-09-20T07:19:20.870Z,14.06
2022-09-20T07:22:23.674Z,14.28
2022-09-20T07:25:25.916Z,14.30
2022-09-20T07:28:30.205Z,14.34
2022-09-20T07:31:32.868Z,14.52
2022-09-20T07:34:35.549Z,14.49
2022-09-20T07:37:41.288Z,14.41
2022-09-20T07:40:46.201Z,14.42
2022-09-20T07:43:50.700Z,14.33
2022-09-20T07:47:00.453Z,14.31
2022-09-20T07:50:04.170Z,14.52
2022-09-20T07:53:06.851Z,14.48
2022-09-20T07:56:13.765Z,14.60
2022-09-20T07:59:16.695Z,14.65
2022-09-20T08:02:19.187Z,14.85
2022-09-20T08:05:21.803Z,14.96
2022-09-20T08:08:24.523Z,15.03
2022-09-20T08:11:29.310Z,14.99
2022-09-20T08:14:31.735Z,15.13
2022-09-20T08:17:34.447Z,15.28
2022-09-20T08:20:38.527Z,15.18
2022-09-20T08:23:43.678Z,15.22
2022-09-20T08:26:46.595Z,15.23
2022-09-20T08:29:53.986Z,15.18
2022-09-20T08:32:56.415Z,15.33
2022-09-20T08:35:59.340Z,15.92
2022-09-20T08:42:39.140Z,17.04
2022-09-20T08:45:45.085Z,16.63
2022-09-20T08:48:48.161Z,16.13
2022-09-20T08:51:50.650Z,15.65
2022-09-20T08:54:53.757Z,16.13
2022-09-20T08:57:58.096Z,18.69
2022-09-20T09:01:01.408Z,19.43
2022-09-20T09:04:19.157Z,17.74
2022-09-20T09:07:24.838Z,15.93
2022-09-20T09:10:42.698Z,15.18
2022-09-20T09:14:30.898Z,15.04
2022-09-20T09:17:33.516Z,14.82
2022-09-20T09:20:43.366Z,14.75
2022-09-20T09:24:06.524Z,14.80
2022-09-20T09:27:19.706Z,14.86
2022-09-20T09:30:34.685Z,14.99
2022-09-20T09:33:44.069Z,14.95
2022-09-20T09:36:46.451Z,15.13
2022-09-20T09:40:06.686Z,15.43
2022-09-20T09:43:21.473Z,15.50
2022-09-20T09:46:27.019Z,15.40
2022-09-20T09:49:36.565Z,15.44
2022-09-20T09:52:39.642Z,15.56
2022-09-20T09:56:19.622Z,15.60
2022-09-20T09:59:47.933Z,15.31
2022-09-20T10:03:25.846Z,15.45
2022-09-20T10:06:47.439Z,15.61
2022-09-20T10:10:09.980Z,15.88
2022-09-20T10:13:21.908Z,16.03
2022-09-20T10:16:59.037Z,15.97
2022-09-20T10:20:08.091Z,15.76
2022-09-20T10:23:51.372Z,15.64
2022-09-20T10:27:19.217Z,15.51
2022-09-20T10:30:23.259Z,15.53
2022-09-20T10:33:56.109Z,15.55
2022-09-20T10:37:00.809Z,15.60
2022-09-20T10:40:46.506Z,15.98
2022-09-20T10:44:07.651Z,16.27
2022-09-20T10:47:22.161Z,16.44
2022-09-20T10:50:35.777Z,16.51
2022-09-20T10:54:17.261Z,16.63
2022-09-20T10:57:38.322Z,16.76
2022-09-20T11:00:45.234Z,16.84
2022-09-20T11:04:25.901Z,16.61
2022-09-20T11:07:43.196Z,16.48
2022-09-20T11:10:48.829Z,16.62
2022-09-20T11:14:06.737Z,16.86
2022-09-20T11:17:22.691Z,17.08
2022-09-20T11:20:29.389Z,17.64
2022-09-20T11:23:45.379Z,17.57
2022-09-20T11:26:58.984Z,17.51
2022-09-20T11:30:10.139Z,17.46
2022-09-20T11:33:21.384Z,16.96
2022-09-20T11:36:52.190Z,16.42
2022-09-20T11:39:56.400Z,16.22
2022-09-20T11:43:02.375Z,15.98
2022-09-20T11:46:10.791Z,15.94
2022-09-20T11:49:45.946Z,15.97
2022-09-20T11:53:08.990Z,16.17
2022-09-20T11:56:20.210Z,16.31
2022-09-20T11:59:41.070Z,16.28
2022-09-20T12:02:51.509Z,16.26
2022-09-20T12:05:58.549Z,16.26
2022-09-20T12:09:06.272Z,16.29
2022-09-20T12:12:37.479Z,16.52
2022-09-20T12:15:40.568Z,16.83
2022-09-20T12:18:53.842Z,17.13
2022-09-20T12:21:59.093Z,17.26
2022-09-20T12:25:38.184Z,17.29
2022-09-20T12:28:48.914Z,17.38
2022-09-20T12:31:56.802Z,17.28
2022-09-20T12:35:00.414Z,17.07
2022-09-20T12:38:21.606Z,16.84
2022-09-20T12:41:28.580Z,16.68
2022-09-20T12:44:49.956Z,16.71
2022-09-20T12:47:55.767Z,16.78
2022-09-20T12:51:43.126Z,16.68
2022-09-20T12:54:52.221Z,16.87
2022-09-20T12:57:58.709Z,16.94
2022-09-20T13:01:04.790Z,16.90
2022-09-20T13:04:50.117Z,16.75
2022-09-20T13:07:59.295Z,16.77
2022-09-20T13:11:17.526Z,16.84
2022-09-20T13:14:26.171Z,17.15
2022-09-20T13:17:31.661Z,17.40
2022-09-20T13:20:35.101Z,17.47
2022-09-20T13:23:50.941Z,17.42
2022-09-20T13:26:55.994Z,17.12
2022-09-20T13:30:19.014Z,17.06
2022-09-20T13:33:24.132Z,16.85
2022-09-20T13:36:30.178Z,16.54
2022-09-20T13:39:36.778Z,16.30
2022-09-20T13:42:39.573Z,16.15
2022-09-20T13:45:43.427Z,16.25
2022-09-20T13:49:07.486Z,16.34
2022-09-20T13:52:31.130Z,16.53
2022-09-20T13:55:35.866Z,16.69
2022-09-20T13:58:38.479Z,16.83
2022-09-20T14:01:48.218Z,16.99
2022-09-20T14:04:54.642Z,17.26
2022-09-20T14:08:00.529Z,17.46
2022-09-20T14:11:05.399Z,17.35
2022-09-20T14:14:12.298Z,17.38
2022-09-20T14:17:19.046Z,17.24
2022-09-20T14:20:23.898Z,16.92
2022-09-20T14:23:28.898Z,16.58
2022-09-20T14:26:40.256Z,16.44
2022-09-20T14:29:45.928Z,16.22
2022-09-20T14:32:55.320Z,16.08
2022-09-20T14:35:58.408Z,15.88
2022-09-20T14:39:04.675Z,15.89
2022-09-20T14:42:19.879Z,16.00
2022-09-20T14:45:31.719Z,16.04
2022-09-20T14:48:37.559Z,16.09
2022-09-20T14:51:40.400Z,16.21
2022-09-20T14:54:43.150Z,16.20
2022-09-20T14:57:46.939Z,16.23
2022-09-20T15:00:55.455Z,16.12
2022-09-20T15:03:58.554Z,16.10
2022-09-20T15:07:08.801Z,16.03
2022-09-20T15:10:15.308Z,16.06
2022-09-20T15:13:18.211Z,15.99
2022-09-20T15:16:21.101Z,15.85
2022-09-20T15:19:23.905Z,15.82
2022-09-20T15:22:27.433Z,15.77
2022-09-20T15:25:30.178Z,15.74
2022-09-20T15:28:33.932Z,15.54
2022-09-20T15:31:36.731Z,15.49
2022-09-20T15:34:39.342Z,15.32
2022-09-20T15:37:42.134Z,15.10
2022-09-20T15:40:47.550Z,14.97
2022-09-20T15:43:50.289Z,14.84
2022-09-20T15:46:53.314Z,14.65
2022-09-20T15:49:56.021Z,14.46
2022-09-20T15:53:00.051Z,14.30
2022-09-20T15:56:14.335Z,14.17
